»·PEaware :: N333ZS KSBA-KCRQ

N333ZS :: KSBA-KCRQ

FLIGHT INFORMATION

Flight Status: Arrived
Operator: Privately registered:
United States
More flights under this callsign
Pilot: Judd H. (29974)
Aircraft: CESSNA 182 SKYLANE
(C182)
More flights by this aircraft type
Origin: KSBA Santa Barbara Mun
United States
Destination: KCRQ McClellan-Palomar
United States
More flights between these airports :: More routes between these airports
Route: +HENER V186 DARTS V597 OCN
File this flight plan on PilotEdge
Remarks:
Altitude:
(Current/Filed)
7,000ft
Speed:
(Current/Filed)
120kts
Departed: 04-Oct-20 12:40 PM
Arrived: 04-Oct-20 02:16 PM
Distance/Time
Traveled:
150nm/1:36
Distance/Time
To Go:
Arrived

Flight Plot

Page will automatically refresh every two minutes.


Map Options




Map Legend


Flown Route
Filed Route
Departure Airport
Arrival Airport
Navaid (VOR, NDB)
Fix

Horizontal Profiles

Position Reports

Time Latitude Longitude Heading Altitude Ground
Speed
04-Oct-20 12:30 34.423497 -119.835824 164 13ft 0kts
04-Oct-20 12:31 34.423496 -119.835823 164 13ft 0kts
04-Oct-20 12:32 34.423494 -119.835823 164 13ft 0kts
04-Oct-20 12:33 34.423493 -119.835823 164 13ft 0kts
04-Oct-20 12:34 34.423492 -119.835822 164 13ft 0kts
04-Oct-20 12:35 34.423212 -119.836214 259 13ft 11kts
04-Oct-20 12:36 34.426693 -119.837190 84 13ft 24kts
04-Oct-20 12:37 34.427040 -119.834338 287 13ft 0kts
04-Oct-20 12:38 34.427912 -119.834925 262 13ft 12kts
04-Oct-20 12:39 34.427277 -119.855546 268 392ft 106kts
04-Oct-20 12:40 34.425600 -119.894370 268 1225ft 118kts
04-Oct-20 12:41 34.424249 -119.934966 270 1993ft 124kts
04-Oct-20 12:42 34.421946 -119.977166 270 2717ft 126kts
04-Oct-20 12:43 34.420362 -120.020148 269 3431ft 127kts
04-Oct-20 12:44 34.418306 -120.063573 256 4023ft 130kts
04-Oct-20 12:45 34.392615 -120.066882 109 4762ft 119kts
04-Oct-20 12:46 34.395185 -120.027284 82 5482ft 118kts
04-Oct-20 12:47 34.391397 -119.987245 94 6178ft 115kts
04-Oct-20 12:48 34.387531 -119.948184 94 6779ft 118kts
04-Oct-20 12:49 34.384959 -119.908740 96 7358ft 117kts
04-Oct-20 12:50 34.381047 -119.869399 93 7906ft 117kts
04-Oct-20 12:51 34.379224 -119.830095 94 8438ft 117kts
04-Oct-20 12:52 34.376271 -119.790926 95 8944ft 116kts
04-Oct-20 12:53 34.373962 -119.748287 95 9005ft 134kts
04-Oct-20 12:54 34.369574 -119.702805 97 8999ft 137kts
04-Oct-20 12:55 34.364967 -119.656797 95 8995ft 136kts
04-Oct-20 12:56 34.361591 -119.611427 94 9001ft 135kts
04-Oct-20 12:57 34.358394 -119.565815 95 8998ft 134kts
04-Oct-20 12:58 34.355125 -119.520772 95 9002ft 135kts
04-Oct-20 12:59 34.351679 -119.475333 95 9013ft 135kts
04-Oct-20 13:00 34.347927 -119.429888 96 9017ft 136kts
04-Oct-20 13:01 34.343699 -119.384381 96 9020ft 136kts
04-Oct-20 13:02 34.339450 -119.338661 96 9020ft 136kts
04-Oct-20 13:04 34.336258 -119.292960 94 9012ft 135kts
04-Oct-20 13:05 34.333528 -119.247517 94 9013ft 135kts
04-Oct-20 13:06 34.333952 -119.201946 85 9017ft 135kts
04-Oct-20 13:07 34.336755 -119.156556 86 9021ft 135kts
04-Oct-20 13:08 34.336020 -119.111139 103 9019ft 135kts
04-Oct-20 13:09 34.327719 -119.066544 102 9015ft 135kts
04-Oct-20 13:10 34.319516 -119.021970 102 9011ft 136kts
04-Oct-20 13:11 34.311299 -118.977305 102 9011ft 135kts
04-Oct-20 13:12 34.303096 -118.932720 102 9010ft 136kts
04-Oct-20 13:13 34.294899 -118.888168 102 9009ft 135kts
04-Oct-20 13:14 34.286628 -118.843487 102 9016ft 136kts
04-Oct-20 13:15 34.278300 -118.798997 102 9038ft 136kts
04-Oct-20 13:16 34.269793 -118.753861 102 9049ft 137kts
04-Oct-20 13:17 34.261298 -118.708869 102 9041ft 138kts
04-Oct-20 13:18 34.252709 -118.663380 102 9037ft 138kts
04-Oct-20 13:19 34.245428 -118.617670 100 9034ft 138kts
04-Oct-20 13:19 34.239675 -118.579550 100 9025ft 138kts
04-Oct-20 13:21 34.230461 -118.527359 102 9027ft 138kts
04-Oct-20 13:22 34.220418 -118.481953 109 8916ft 141kts
04-Oct-20 13:22 34.207537 -118.446126 114 8999ft 134kts
04-Oct-20 13:23 34.194030 -118.403913 107 9016ft 136kts
04-Oct-20 13:25 34.181288 -118.352864 107 9005ft 136kts
04-Oct-20 13:25 34.171568 -118.316500 109 9005ft 136kts
04-Oct-20 13:26 34.157262 -118.274372 133 9007ft 136kts
04-Oct-20 13:27 34.125898 -118.248746 151 9011ft 137kts
04-Oct-20 13:28 34.090556 -118.231373 156 8999ft 137kts
04-Oct-20 13:29 34.055763 -118.212746 153 8992ft 136kts
04-Oct-20 13:30 34.021863 -118.192687 152 8999ft 136kts
04-Oct-20 13:31 33.987889 -118.172336 152 8991ft 135kts
04-Oct-20 13:32 33.954401 -118.152282 152 8989ft 135kts
04-Oct-20 13:33 33.920212 -118.133684 154 8990ft 134kts
04-Oct-20 13:34 33.886449 -118.114196 152 8990ft 134kts
04-Oct-20 13:35 33.852853 -118.094066 151 8990ft 134kts
04-Oct-20 13:36 33.819441 -118.074036 151 8989ft 134kts
04-Oct-20 13:37 33.784945 -118.056495 153 8989ft 134kts
04-Oct-20 13:38 33.758857 -118.024829 133 8992ft 133kts
04-Oct-20 13:39 33.733124 -117.992588 136 8990ft 134kts
04-Oct-20 13:40 33.705188 -117.962863 138 8990ft 133kts
04-Oct-20 13:41 33.678602 -117.931668 132 8990ft 133kts
04-Oct-20 13:42 33.653054 -117.899113 134 8990ft 133kts
04-Oct-20 13:43 33.626481 -117.867346 133 8989ft 137kts
04-Oct-20 13:44 33.598982 -117.835303 134 8373ft 134kts
04-Oct-20 13:45 33.572284 -117.804794 135 7664ft 131kts
04-Oct-20 13:46 33.546347 -117.775658 135 7105ft 127kts
04-Oct-20 13:47 33.520460 -117.746116 134 6436ft 129kts
04-Oct-20 13:48 33.494652 -117.716056 133 5747ft 129kts
04-Oct-20 13:49 33.471306 -117.683773 136 5185ft 121kts
04-Oct-20 13:50 33.444129 -117.655168 139 4960ft 135kts
04-Oct-20 13:51 33.418720 -117.626172 131 5007ft 127kts
04-Oct-20 13:52 33.394060 -117.594787 133 5005ft 129kts
04-Oct-20 13:53 33.368158 -117.564868 137 5002ft 129kts
04-Oct-20 13:54 33.341555 -117.536287 136 5002ft 128kts
04-Oct-20 13:55 33.315534 -117.506604 134 5000ft 128kts
04-Oct-20 13:56 33.290320 -117.476101 134 5001ft 129kts
04-Oct-20 13:57 33.265096 -117.445290 134 5000ft 129kts
04-Oct-20 13:58 33.242731 -117.412480 95 5002ft 129kts
04-Oct-20 13:59 33.240254 -117.369620 94 5002ft 130kts
04-Oct-20 14:00 33.237428 -117.326399 95 4996ft 130kts
04-Oct-20 14:01 33.234595 -117.283315 95 5000ft 130kts
04-Oct-20 14:02 33.231872 -117.241241 95 4999ft 130kts
04-Oct-20 14:03 33.229069 -117.198075 95 5000ft 129kts
04-Oct-20 14:04 33.226819 -117.155058 94 5000ft 130kts
04-Oct-20 14:05 33.224592 -117.112048 94 4999ft 129kts
04-Oct-20 14:06 33.222470 -117.069036 93 4999ft 129kts
04-Oct-20 14:07 33.210369 -117.032650 173 4861ft 135kts
04-Oct-20 14:08 33.180976 -117.059630 224 4289ft 134kts
04-Oct-20 14:09 33.160740 -117.092667 251 3578ft 120kts
04-Oct-20 14:10 33.151850 -117.131685 259 2857ft 122kts
04-Oct-20 14:11 33.145420 -117.171870 260 2142ft 123kts
04-Oct-20 14:12 33.139391 -117.209277 261 1465ft 95kts
04-Oct-20 14:13 33.134699 -117.240042 262 937ft 97kts
04-Oct-20 14:14 33.130042 -117.268891 262 404ft 74kts
04-Oct-20 14:15 33.127742 -117.282350 226 303ft 6kts
04-Oct-20 14:16 33.127302 -117.280575 77 303ft 34kts
04-Oct-20 14:17 33.127674 -117.275006 93 303ft 8kts
04-Oct-20 14:18 33.127881 -117.274833 349 303ft 0kts
04-Oct-20 14:19 33.127881 -117.274833 349 303ft 0kts
04-Oct-20 14:20 33.127881 -117.274833 349 303ft 0kts
04-Oct-20 14:21 33.127881 -117.274833 349 303ft 0kts
04-Oct-20 14:22 33.127881 -117.274833 349 303ft 0kts

Navigation Log

Ident Type
Flight plan parsing failed, navigation log unavailable